Time;durP1;ratioP1;P1;durP2;ratioP2;P2;SDS_P1;SDS_P2;PMS_P1;PMS_P2;Temp;Humidity;BMP_temperature;BMP_pressure;BME280_temperature;BME280_humidity;BME280_pressure;Samples;Min_cycle;Max_cycle;Signal;HPM_P1;HPM_P2
2023/04/14 00:01:39;;;;;;;;;;;19.70;40.70;;;;;;5051432;28;20003;-58
2023/04/14 00:04:06;;;;;;;;;;;19.70;40.70;;;;;;5032754;28;19928;-58
2023/04/14 00:06:35;;;;;;;;;;;19.70;40.70;;;;;;5033351;28;19921;-57
2023/04/14 00:09:01;;;;;;;;;;;19.60;40.60;;;;;;5031838;28;19925;-59
2023/04/14 00:11:28;;;;;;;;;;;19.60;40.60;;;;;;5066901;28;19921;-57
2023/04/14 00:13:56;;;;;;;;;;;19.60;40.60;;;;;;5050437;28;19921;-57
2023/04/14 00:16:22;;;;;;;;;;;19.60;40.60;;;;;;5049665;28;20206;-58
2023/04/14 00:18:49;;;;;;;;;;;19.60;40.60;;;;;;5032997;28;19928;-57
2023/04/14 00:21:16;;;;;;;;;;;19.60;40.60;;;;;;5047976;28;19991;-56
2023/04/14 00:23:44;;;;;;;;;;;19.60;40.50;;;;;;5034136;28;19944;-59
2023/04/14 00:26:11;;;;;;;;;;;19.60;40.60;;;;;;5047063;28;19964;-57
2023/04/14 00:28:38;;;;;;;;;;;19.60;40.50;;;;;;5033881;28;19925;-59
2023/04/14 00:31:05;;;;;;;;;;;19.60;40.60;;;;;;5031298;28;19929;-58
2023/04/14 00:33:32;;;;;;;;;;;19.60;40.50;;;;;;5030098;28;19929;-57
2023/04/14 00:35:58;;;;;;;;;;;19.60;40.50;;;;;;5033404;28;20039;-58
2023/04/14 00:38:25;;;;;;;;;;;19.60;40.50;;;;;;5030600;28;19933;-58
2023/04/14 00:40:53;;;;;;;;;;;19.50;40.40;;;;;;5050782;28;19920;-58
2023/04/14 00:43:20;;;;;;;;;;;19.50;40.40;;;;;;5050883;28;19932;-53
2023/04/14 00:45:47;;;;;;;;;;;19.50;40.40;;;;;;5049561;28;19963;-59
2023/04/14 00:48:14;;;;;;;;;;;19.50;40.40;;;;;;5049969;28;19925;-55
2023/04/14 00:50:41;;;;;;;;;;;19.50;40.40;;;;;;5045217;28;19929;-57
2023/04/14 00:53:08;;;;;;;;;;;19.50;40.40;;;;;;5031790;28;20027;-59
2023/04/14 00:55:35;;;;;;;;;;;19.50;40.40;;;;;;5050559;28;20155;-58
2023/04/14 00:58:03;;;;;;;;;;;19.50;40.40;;;;;;5049619;28;19920;-59
2023/04/14 01:00:30;;;;;;;;;;;19.50;40.40;;;;;;5038637;28;19952;-59
2023/04/14 01:02:57;;;;;;;;;;;19.50;40.40;;;;;;5038997;28;19931;-59
2023/04/14 01:05:23;;;;;;;;;;;19.50;40.40;;;;;;5032533;28;19947;-59
2023/04/14 01:07:50;;;;;;;;;;;19.50;40.40;;;;;;5041185;28;19971;-58
2023/04/14 01:10:17;;;;;;;;;;;19.50;40.40;;;;;;5032022;28;19932;-59
2023/04/14 01:12:49;;;;;;;;;;;19.40;40.30;;;;;;5031735;28;19932;-59
2023/04/14 01:15:21;;;;;;;;;;;19.40;40.90;;;;;;5035990;28;20000;-58
2023/04/14 01:17:49;;;;;;;;;;;19.40;40.30;;;;;;5039484;28;19993;-58
2023/04/14 01:20:18;;;;;;;;;;;19.50;40.30;;;;;;5030244;28;19920;-58
2023/04/14 01:22:47;;;;;;;;;;;19.50;40.30;;;;;;5039695;28;19978;-58
2023/04/14 01:25:31;;;;;;;;;;;19.50;40.30;;;;;;5032001;28;19928;-59
2023/04/14 01:28:04;;;;;;;;;;;19.40;40.20;;;;;;5048120;28;19975;-58
2023/04/14 01:30:39;;;;;;;;;;;19.40;40.20;;;;;;5033653;28;19971;-58
2023/04/14 01:33:08;;;;;;;;;;;19.40;40.20;;;;;;5048514;28;19921;-59
2023/04/14 01:35:35;;;;;;;;;;;19.40;40.20;;;;;;5048550;28;19970;-59
2023/04/14 01:38:03;;;;;;;;;;;19.40;40.20;;;;;;5044394;28;20367;-55
2023/04/14 01:40:32;;;;;;;;;;;19.40;40.20;;;;;;5046782;28;19928;-58
2023/04/14 01:43:01;;;;;;;;;;;19.40;40.20;;;;;;5031626;28;19920;-57
2023/04/14 01:45:29;;;;;;;;;;;19.40;40.20;;;;;;5034999;28;19929;-55
2023/04/14 01:47:55;;;;;;;;;;;19.40;40.20;;;;;;5044206;28;19932;-59
2023/04/14 01:50:24;;;;;;;;;;;19.40;40.20;;;;;;5033391;28;19967;-58
2023/04/14 01:52:52;;;;;;;;;;;19.40;40.20;;;;;;5044902;28;19920;-58
2023/04/14 01:55:19;;;;;;;;;;;19.40;40.20;;;;;;5038347;28;19927;-57
2023/04/14 01:57:46;;;;;;;;;;;19.40;40.20;;;;;;5038858;28;19968;-58
2023/04/14 02:00:13;;;;;;;;;;;19.40;40.10;;;;;;5031745;28;19982;-58
2023/04/14 02:02:41;;;;;;;;;;;19.30;40.10;;;;;;5048603;28;19925;-58
2023/04/14 02:05:08;;;;;;;;;;;19.40;40.20;;;;;;5031745;28;19940;-56
2023/04/14 02:07:36;;;;;;;;;;;19.30;40.10;;;;;;5032341;28;19929;-58
2023/04/14 02:10:03;;;;;;;;;;;19.30;40.10;;;;;;5031491;28;19921;-57
2023/04/14 02:12:30;;;;;;;;;;;19.30;40.10;;;;;;5047319;28;19924;-58
2023/04/14 02:14:57;;;;;;;;;;;19.30;40.00;;;;;;5030815;28;19920;-56
2023/04/14 02:17:23;;;;;;;;;;;19.30;40.00;;;;;;5035466;28;20010;-58
2023/04/14 02:19:50;;;;;;;;;;;19.30;40.00;;;;;;5052883;28;19968;-59
2023/04/14 02:22:17;;;;;;;;;;;19.30;40.00;;;;;;5034503;28;19978;-58
2023/04/14 02:24:47;;;;;;;;;;;19.30;40.00;;;;;;5053701;28;19944;-58
2023/04/14 02:27:14;;;;;;;;;;;19.30;40.00;;;;;;5053445;28;20322;-58
2023/04/14 02:29:42;;;;;;;;;;;19.30;39.90;;;;;;5049641;28;19920;-57
2023/04/14 02:32:11;;;;;;;;;;;19.30;39.90;;;;;;5035594;28;19982;-57
2023/04/14 02:34:38;;;;;;;;;;;19.30;39.90;;;;;;5034917;28;19970;-58
2023/04/14 02:37:08;;;;;;;;;;;19.30;39.90;;;;;;5039846;28;19921;-58
2023/04/14 02:39:36;;;;;;;;;;;19.30;39.90;;;;;;5034014;28;19920;-58
2023/04/14 02:42:09;;;;;;;;;;;19.30;39.90;;;;;;5048612;28;20003;-58
2023/04/14 02:44:38;;;;;;;;;;;19.20;39.80;;;;;;5051786;28;19967;-58
2023/04/14 02:47:06;;;;;;;;;;;19.20;39.80;;;;;;5044404;28;19921;-58
2023/04/14 02:49:35;;;;;;;;;;;19.20;39.80;;;;;;5051221;28;19924;-58
2023/04/14 02:52:02;;;;;;;;;;;19.30;39.80;;;;;;5031388;28;19924;-58
2023/04/14 02:54:29;;;;;;;;;;;19.20;39.70;;;;;;5052919;28;19921;-58
2023/04/14 02:56:56;;;;;;;;;;;19.20;39.70;;;;;;5051971;28;20011;-57
2023/04/14 02:59:25;;;;;;;;;;;19.20;39.70;;;;;;5033682;28;19921;-58
2023/04/14 03:01:52;;;;;;;;;;;19.20;39.70;;;;;;5035178;28;19983;-55
2023/04/14 03:04:19;;;;;;;;;;;19.20;39.70;;;;;;5031910;28;19971;-58
2023/04/14 03:06:46;;;;;;;;;;;19.20;39.70;;;;;;5035008;28;19924;-58
2023/04/14 03:09:13;;;;;;;;;;;19.20;39.70;;;;;;5040183;28;20329;-57
2023/04/14 03:11:40;;;;;;;;;;;19.20;39.70;;;;;;5026152;28;19921;-58
2023/04/14 03:14:07;;;;;;;;;;;19.20;39.60;;;;;;5034919;28;19978;-57
2023/04/14 03:16:38;;;;;;;;;;;19.20;39.60;;;;;;5042036;28;19920;-58
2023/04/14 03:19:05;;;;;;;;;;;19.20;39.60;;;;;;5048322;28;19967;-58
2023/04/14 03:21:32;;;;;;;;;;;19.20;39.70;;;;;;5024967;28;19928;-59
2023/04/14 03:23:59;;;;;;;;;;;19.20;39.60;;;;;;5034643;28;19927;-58
2023/04/14 03:26:26;;;;;;;;;;;19.20;39.60;;;;;;5050154;28;19921;-57
2023/04/14 03:28:52;;;;;;;;;;;19.10;39.50;;;;;;5033854;28;19920;-58
2023/04/14 03:31:19;;;;;;;;;;;19.20;39.50;;;;;;5038596;28;19920;-57
2023/04/14 03:33:47;;;;;;;;;;;19.20;39.50;;;;;;5051286;28;19924;-56
2023/04/14 03:36:14;;;;;;;;;;;19.20;39.50;;;;;;5030144;28;19921;-58
2023/04/14 03:38:42;;;;;;;;;;;19.10;39.40;;;;;;5023396;28;20282;-58
2023/04/14 03:41:08;;;;;;;;;;;19.10;39.40;;;;;;5036739;28;19921;-58
2023/04/14 03:43:35;;;;;;;;;;;19.10;39.40;;;;;;5045765;28;19936;-59
2023/04/14 03:46:04;;;;;;;;;;;19.10;39.40;;;;;;5032282;28;19983;-58
2023/04/14 03:48:33;;;;;;;;;;;19.10;39.40;;;;;;5029428;28;19925;-57
2023/04/14 03:51:01;;;;;;;;;;;19.10;39.40;;;;;;5034889;28;19956;-58
2023/04/14 03:53:28;;;;;;;;;;;19.10;39.40;;;;;;5039500;28;19927;-58
2023/04/14 03:55:55;;;;;;;;;;;19.10;39.30;;;;;;5016778;28;19920;-58
2023/04/14 03:58:22;;;;;;;;;;;19.10;39.40;;;;;;5050829;28;19935;-58
2023/04/14 04:00:49;;;;;;;;;;;19.10;39.40;;;;;;5033290;28;19921;-58
2023/04/14 04:03:15;;;;;;;;;;;19.10;39.40;;;;;;5038412;28;19927;-57
2023/04/14 04:05:42;;;;;;;;;;;19.10;39.40;;;;;;5032511;28;19944;-58
2023/04/14 04:08:10;;;;;;;;;;;19.10;39.40;;;;;;5051406;28;19921;-58
2023/04/14 04:10:37;;;;;;;;;;;19.10;39.40;;;;;;5033868;28;19964;-57
2023/04/14 04:13:06;;;;;;;;;;;19.10;39.40;;;;;;5039294;28;19928;-57
2023/04/14 04:15:33;;;;;;;;;;;19.10;39.30;;;;;;5032223;28;19924;-58
2023/04/14 04:18:00;;;;;;;;;;;19.10;39.30;;;;;;5049666;28;19932;-57
2023/04/14 04:20:26;;;;;;;;;;;19.10;39.30;;;;;;5033194;28;19925;-58
2023/04/14 04:22:54;;;;;;;;;;;19.10;39.30;;;;;;5051350;28;19920;-58
2023/04/14 04:25:22;;;;;;;;;;;19.10;39.30;;;;;;5051022;28;19921;-57
2023/04/14 04:27:49;;;;;;;;;;;19.10;39.30;;;;;;5038373;28;19975;-58
2023/04/14 04:30:16;;;;;;;;;;;19.10;39.90;;;;;;5033451;28;19926;-58
2023/04/14 04:32:43;;;;;;;;;;;19.10;39.30;;;;;;5045724;28;19920;-58
2023/04/14 04:35:10;;;;;;;;;;;19.00;39.20;;;;;;5050829;28;19925;-57
2023/04/14 04:37:38;;;;;;;;;;;19.00;39.30;;;;;;5049011;28;19933;-58
2023/04/14 04:40:06;;;;;;;;;;;19.00;39.20;;;;;;5033041;28;19921;-58
2023/04/14 04:42:34;;;;;;;;;;;19.00;39.20;;;;;;5030117;28;19949;-58
2023/04/14 04:45:01;;;;;;;;;;;19.00;39.20;;;;;;5013345;28;19921;-58
2023/04/14 04:47:28;;;;;;;;;;;19.00;39.20;;;;;;5025281;28;19924;-56
2023/04/14 04:49:55;;;;;;;;;;;19.00;39.30;;;;;;5051054;28;20055;-57
2023/04/14 04:52:22;;;;;;;;;;;19.00;39.20;;;;;;5050361;28;19943;-58
2023/04/14 04:54:51;;;;;;;;;;;19.00;39.30;;;;;;5049525;28;19920;-58
2023/04/14 04:57:17;;;;;;;;;;;19.00;39.20;;;;;;5033493;28;19935;-56
2023/04/14 04:59:46;;;;;;;;;;;19.00;39.20;;;;;;5042412;28;20200;-58
2023/04/14 05:02:13;;;;;;;;;;;19.00;39.20;;;;;;5047098;28;19981;-55
2023/04/14 05:04:39;;;;;;;;;;;19.00;39.20;;;;;;5050538;28;19982;-55
2023/04/14 05:07:06;;;;;;;;;;;19.00;39.20;;;;;;5032957;28;19921;-58
2023/04/14 05:09:33;;;;;;;;;;;19.00;39.20;;;;;;5031115;28;20310;-57
2023/04/14 05:12:00;;;;;;;;;;;19.00;39.20;;;;;;5033082;28;20386;-58
2023/04/14 05:14:27;;;;;;;;;;;19.00;39.80;;;;;;5032480;28;19932;-58
2023/04/14 05:16:55;;;;;;;;;;;19.00;39.30;;;;;;5031464;28;19929;-57
2023/04/14 05:19:22;;;;;;;;;;;19.00;39.30;;;;;;5014581;28;19950;-59
2023/04/14 05:21:49;;;;;;;;;;;19.00;39.30;;;;;;5018848;28;19925;-58
2023/04/14 05:24:16;;;;;;;;;;;19.00;39.30;;;;;;5049537;28;19928;-58
2023/04/14 05:26:42;;;;;;;;;;;19.00;39.30;;;;;;5032443;28;19927;-57
2023/04/14 05:29:09;;;;;;;;;;;18.90;39.20;;;;;;5031901;28;19925;-57
2023/04/14 05:31:36;;;;;;;;;;;18.90;39.30;;;;;;5031141;28;19975;-58
2023/04/14 05:34:04;;;;;;;;;;;19.00;39.40;;;;;;5029651;28;19925;-58
2023/04/14 05:36:33;;;;;;;;;;;19.00;39.50;;;;;;5014084;28;20037;-56
2023/04/14 05:39:00;;;;;;;;;;;19.00;39.50;;;;;;5031874;28;19924;-57
2023/04/14 05:41:26;;;;;;;;;;;19.00;39.60;;;;;;5032899;28;19960;-58
2023/04/14 05:43:53;;;;;;;;;;;19.00;39.60;;;;;;5048912;28;19982;-58
2023/04/14 05:46:20;;;;;;;;;;;19.00;39.70;;;;;;5048384;28;19925;-57
2023/04/14 05:48:46;;;;;;;;;;;19.00;39.70;;;;;;5028073;28;19975;-58
2023/04/14 05:51:15;;;;;;;;;;;19.00;39.60;;;;;;5019578;28;19921;-57
2023/04/14 05:53:42;;;;;;;;;;;19.00;39.60;;;;;;5030936;28;20180;-58
2023/04/14 05:56:10;;;;;;;;;;;19.00;39.60;;;;;;5031026;28;19925;-58
2023/04/14 05:58:37;;;;;;;;;;;19.00;39.60;;;;;;5031842;28;19928;-54
2023/04/14 06:01:04;;;;;;;;;;;19.00;39.50;;;;;;5034438;28;19967;-58
2023/04/14 06:03:31;;;;;;;;;;;19.00;39.50;;;;;;5035265;28;19920;-57
2023/04/14 06:05:58;;;;;;;;;;;19.00;39.50;;;;;;5048728;28;19998;-58
2023/04/14 06:08:26;;;;;;;;;;;19.00;39.50;;;;;;5037806;28;19925;-56
2023/04/14 06:10:52;;;;;;;;;;;19.00;39.50;;;;;;5031070;28;19921;-58
2023/04/14 06:13:21;;;;;;;;;;;19.00;39.50;;;;;;5031051;28;19921;-58
2023/04/14 06:15:48;;;;;;;;;;;19.00;39.50;;;;;;5031437;28;20130;-59
2023/04/14 06:18:15;;;;;;;;;;;19.00;39.50;;;;;;5024548;28;19921;-59
2023/04/14 06:20:42;;;;;;;;;;;19.00;39.50;;;;;;5033093;28;19928;-59
2023/04/14 06:23:08;;;;;;;;;;;18.90;39.40;;;;;;5031346;28;19924;-58
2023/04/14 06:25:36;;;;;;;;;;;19.00;39.50;;;;;;5029522;28;19928;-59
2023/04/14 06:28:03;;;;;;;;;;;19.00;39.60;;;;;;5033745;28;19967;-59
2023/04/14 06:30:31;;;;;;;;;;;19.00;39.60;;;;;;5053428;28;19920;-59
2023/04/14 06:32:57;;;;;;;;;;;19.00;39.60;;;;;;5036317;28;20348;-59
2023/04/14 06:35:24;;;;;;;;;;;19.00;39.60;;;;;;5053273;28;19967;-59
2023/04/14 06:37:51;;;;;;;;;;;19.00;39.60;;;;;;5053365;28;19921;-59
2023/04/14 06:40:18;;;;;;;;;;;19.00;39.60;;;;;;5035260;28;20002;-59
2023/04/14 06:42:46;;;;;;;;;;;19.00;39.60;;;;;;5035603;28;19967;-59
2023/04/14 06:45:13;;;;;;;;;;;19.00;39.70;;;;;;5035666;28;19920;-59
2023/04/14 06:47:40;;;;;;;;;;;19.00;39.70;;;;;;5035029;28;19955;-59
2023/04/14 06:50:07;;;;;;;;;;;19.00;39.70;;;;;;5036248;28;19921;-60
2023/04/14 06:52:33;;;;;;;;;;;19.00;39.70;;;;;;5035181;28;19920;-59
2023/04/14 06:55:00;;;;;;;;;;;19.10;39.80;;;;;;5018881;28;19921;-60
2023/04/14 06:57:27;;;;;;;;;;;19.10;40.00;;;;;;5035843;28;19928;-59
2023/04/14 06:59:56;;;;;;;;;;;19.10;40.00;;;;;;5035567;28;19925;-59
2023/04/14 07:02:23;;;;;;;;;;;19.20;40.20;;;;;;5056309;28;19920;-59
2023/04/14 07:04:50;;;;;;;;;;;19.10;40.20;;;;;;5056857;28;19925;-59
2023/04/14 07:07:17;;;;;;;;;;;19.20;40.30;;;;;;5038853;28;19939;-59
2023/04/14 07:09:43;;;;;;;;;;;19.20;40.40;;;;;;5038806;28;19928;-58
2023/04/14 07:12:12;;;;;;;;;;;19.20;40.40;;;;;;5056700;28;19967;-59
2023/04/14 07:14:38;;;;;;;;;;;19.20;40.40;;;;;;5038895;28;20236;-59
2023/04/14 07:17:07;;;;;;;;;;;19.30;40.50;;;;;;5038626;28;20321;-58
2023/04/14 07:19:33;;;;;;;;;;;19.30;40.50;;;;;;5038891;28;20282;-59
2023/04/14 07:22:00;;;;;;;;;;;19.30;40.60;;;;;;5038808;28;20240;-59
2023/04/14 07:24:27;;;;;;;;;;;19.30;40.60;;;;;;5038686;28;19920;-59
2023/04/14 07:26:54;;;;;;;;;;;19.30;40.60;;;;;;5039056;28;19921;-60
2023/04/14 07:29:21;;;;;;;;;;;19.40;40.70;;;;;;5036921;28;20252;-59
2023/04/14 07:31:47;;;;;;;;;;;19.40;40.80;;;;;;5056384;28;19960;-59
2023/04/14 07:34:16;;;;;;;;;;;19.40;40.80;;;;;;5044424;28;19952;-59
2023/04/14 07:36:42;;;;;;;;;;;19.40;40.80;;;;;;5059192;28;19952;-59
2023/04/14 07:39:09;;;;;;;;;;;19.40;40.90;;;;;;5056118;28;19932;-59
2023/04/14 07:41:36;;;;;;;;;;;19.40;40.90;;;;;;5042858;28;19924;-60
2023/04/14 07:44:03;;;;;;;;;;;19.40;40.90;;;;;;5076056;28;19920;-59
2023/04/14 07:46:30;;;;;;;;;;;19.50;41.00;;;;;;5058117;28;19989;-60
2023/04/14 07:48:57;;;;;;;;;;;19.50;41.00;;;;;;5058164;28;19921;-59
2023/04/14 07:51:26;;;;;;;;;;;19.50;41.00;;;;;;5037924;28;19948;-59
2023/04/14 07:53:54;;;;;;;;;;;19.50;41.00;;;;;;5034495;28;19920;-59
2023/04/14 07:56:21;;;;;;;;;;;19.50;41.00;;;;;;5040752;28;19925;-59
2023/04/14 07:58:48;;;;;;;;;;;19.50;41.00;;;;;;5043872;28;20299;-60
2023/04/14 08:01:15;;;;;;;;;;;19.60;41.10;;;;;;5035282;28;20346;-60
2023/04/14 08:03:42;;;;;;;;;;;19.60;41.20;;;;;;5036053;28;19971;-60
2023/04/14 08:06:09;;;;;;;;;;;19.60;41.20;;;;;;5033237;28;19920;-60
2023/04/14 08:08:37;;;;;;;;;;;19.60;41.20;;;;;;5055810;28;19921;-59
2023/04/14 08:11:04;;;;;;;;;;;19.60;41.20;;;;;;5035185;28;19925;-60
2023/04/14 08:13:31;;;;;;;;;;;19.60;41.20;;;;;;5052763;28;19920;-59
2023/04/14 08:15:57;;;;;;;;;;;19.60;41.30;;;;;;5044046;28;19927;-59
2023/04/14 08:18:24;;;;;;;;;;;19.60;41.30;;;;;;5035612;28;19920;-59
2023/04/14 08:20:51;;;;;;;;;;;19.60;41.30;;;;;;5061048;28;19927;-58
2023/04/14 08:23:18;;;;;;;;;;;19.70;41.40;;;;;;5055372;28;19982;-59
2023/04/14 08:25:46;;;;;;;;;;;19.70;41.40;;;;;;5038744;28;19927;-57
2023/04/14 08:28:13;;;;;;;;;;;19.70;41.40;;;;;;5040909;28;20366;-58
2023/04/14 08:30:40;;;;;;;;;;;19.70;41.40;;;;;;5039538;28;19972;-59
2023/04/14 08:33:07;;;;;;;;;;;19.70;41.40;;;;;;5033421;28;20592;-59
2023/04/14 08:35:34;;;;;;;;;;;19.70;41.40;;;;;;5033434;28;19924;-60
2023/04/14 08:38:01;;;;;;;;;;;19.70;41.40;;;;;;5051256;28;19931;-59
2023/04/14 08:40:30;;;;;;;;;;;19.80;41.60;;;;;;5032915;28;19921;-60
2023/04/14 08:42:59;;;;;;;;;;;19.80;41.60;;;;;;5032667;28;19921;-59
2023/04/14 08:45:25;;;;;;;;;;;19.80;41.60;;;;;;5034986;28;19920;-58
2023/04/14 08:47:52;;;;;;;;;;;19.80;41.60;;;;;;5017798;28;19921;-58
2023/04/14 08:50:19;;;;;;;;;;;19.80;41.60;;;;;;5040869;28;19960;-58
2023/04/14 08:52:46;;;;;;;;;;;19.80;41.60;;;;;;5053483;28;19924;-58
2023/04/14 08:55:13;;;;;;;;;;;19.80;41.60;;;;;;5035384;28;19920;-59
2023/04/14 08:57:41;;;;;;;;;;;19.80;41.60;;;;;;5032255;28;19921;-60
2023/04/14 09:00:10;;;;;;;;;;;19.80;41.60;;;;;;5039710;28;20016;-59
2023/04/14 09:02:38;;;;;;;;;;;19.80;41.60;;;;;;5036443;28;19921;-61
2023/04/14 09:05:06;;;;;;;;;;;19.80;41.60;;;;;;5041416;28;19967;-60
2023/04/14 09:07:32;;;;;;;;;;;19.90;41.70;;;;;;5023905;28;20366;-58
2023/04/14 09:09:59;;;;;;;;;;;19.90;41.70;;;;;;5052583;28;19920;-59
2023/04/14 09:12:26;;;;;;;;;;;19.90;41.70;;;;;;5049666;28;19921;-60
2023/04/14 09:14:53;;;;;;;;;;;19.90;41.70;;;;;;5023012;28;19921;-60
2023/04/14 09:17:21;;;;;;;;;;;19.90;41.70;;;;;;5030429;28;19921;-60
2023/04/14 09:19:48;;;;;;;;;;;19.90;41.70;;;;;;5029329;28;19960;-58
2023/04/14 09:22:15;;;;;;;;;;;19.90;41.70;;;;;;5031456;28;19952;-57
2023/04/14 09:24:42;;;;;;;;;;;19.90;41.70;;;;;;5037824;28;19959;-59
2023/04/14 09:27:08;;;;;;;;;;;19.90;41.80;;;;;;5033520;28;20811;-59
2023/04/14 09:29:36;;;;;;;;;;;19.90;41.80;;;;;;5033406;28;19921;-59
2023/04/14 09:32:03;;;;;;;;;;;19.90;41.80;;;;;;5031043;28;19921;-58
2023/04/14 09:34:31;;;;;;;;;;;19.90;41.90;;;;;;5032303;28;19921;-59
2023/04/14 09:36:59;;;;;;;;;;;19.90;41.90;;;;;;5043908;28;19920;-59
2023/04/14 09:39:26;;;;;;;;;;;20.00;41.90;;;;;;5034103;28;19967;-58
2023/04/14 09:41:52;;;;;;;;;;;20.00;42.00;;;;;;5029300;28;19952;-58
2023/04/14 09:44:19;;;;;;;;;;;20.00;42.00;;;;;;5032723;28;19920;-57
2023/04/14 09:46:56;;;;;;;;;;;20.00;42.00;;;;;;5032962;28;19921;-57
2023/04/14 09:49:23;;;;;;;;;;;20.00;42.00;;;;;;5045257;28;19927;-57
2023/04/14 09:51:51;;;;;;;;;;;20.00;42.00;;;;;;5035944;28;19966;-58
2023/04/14 09:54:22;;;;;;;;;;;20.00;41.90;;;;;;5036500;28;19921;-58
2023/04/14 09:56:49;;;;;;;;;;;20.00;41.90;;;;;;5032125;28;19920;-58
2023/04/14 09:59:15;;;;;;;;;;;20.00;42.00;;;;;;5049204;28;19921;-57
2023/04/14 10:01:42;;;;;;;;;;;20.00;41.90;;;;;;5032545;28;19925;-58
2023/04/14 10:04:15;;;;;;;;;;;20.00;41.90;;;;;;5034060;28;19921;-57
2023/04/14 10:06:42;;;;;;;;;;;20.00;41.90;;;;;;5053614;28;19929;-59
2023/04/14 10:09:10;;;;;;;;;;;20.00;41.90;;;;;;5034738;28;19920;-59
2023/04/14 10:11:36;;;;;;;;;;;20.00;41.90;;;;;;5052241;28;19920;-59
2023/04/14 10:14:04;;;;;;;;;;;20.00;42.00;;;;;;5036509;28;19921;-58
2023/04/14 10:16:30;;;;;;;;;;;20.00;41.90;;;;;;5030788;28;19921;-58
2023/04/14 10:18:57;;;;;;;;;;;20.00;42.00;;;;;;5035143;28;19920;-58
2023/04/14 10:21:24;;;;;;;;;;;20.00;42.00;;;;;;5073933;28;20020;-59
2023/04/14 10:23:51;;;;;;;;;;;20.00;42.00;;;;;;5055259;28;19943;-58
2023/04/14 10:26:19;;;;;;;;;;;20.00;42.00;;;;;;5053927;28;20045;-58
2023/04/14 10:28:46;;;;;;;;;;;20.00;42.00;;;;;;5034331;28;19921;-58
2023/04/14 10:31:15;;;;;;;;;;;20.10;42.10;;;;;;5035554;28;19921;-59
2023/04/14 10:33:42;;;;;;;;;;;20.10;42.10;;;;;;5025577;28;19947;-59
2023/04/14 10:36:09;;;;;;;;;;;20.10;42.20;;;;;;5038567;28;19971;-59
2023/04/14 10:38:39;;;;;;;;;;;20.10;42.20;;;;;;5039881;28;19921;-59
2023/04/14 10:41:06;;;;;;;;;;;20.10;42.10;;;;;;5039298;28;19927;-59
2023/04/14 10:43:36;;;;;;;;;;;20.10;42.00;;;;;;5035888;28;19972;-59
2023/04/14 10:46:03;;;;;;;;;;;20.10;41.80;;;;;;5044672;28;19928;-59
2023/04/14 10:48:32;;;;;;;;;;;20.00;41.50;;;;;;5039459;28;19927;-59
2023/04/14 10:50:59;;;;;;;;;;;20.00;41.40;;;;;;5037072;28;19920;-59
2023/04/14 10:53:25;;;;;;;;;;;20.00;41.20;;;;;;5037782;28;19966;-59
2023/04/14 10:55:53;;;;;;;;;;;20.00;41.00;;;;;;5019242;28;20023;-59
2023/04/14 10:58:21;;;;;;;;;;;20.00;40.80;;;;;;5037077;28;19928;-58
2023/04/14 11:00:49;;;;;;;;;;;20.00;40.60;;;;;;5019385;28;20020;-61
2023/04/14 11:03:16;;;;;;;;;;;20.00;40.50;;;;;;5032739;28;19924;-60
2023/04/14 11:05:43;;;;;;;;;;;20.00;40.40;;;;;;5045840;28;19927;-60
2023/04/14 11:08:13;;;;;;;;;;;19.90;40.20;;;;;;5038862;28;19948;-60
2023/04/14 11:10:40;;;;;;;;;;;19.90;40.10;;;;;;5064619;28;19963;-60
2023/04/14 11:13:07;;;;;;;;;;;19.90;40.00;;;;;;5056758;28;19920;-58
2023/04/14 11:15:44;;;;;;;;;;;19.90;40.00;;;;;;5038613;28;19947;-58
2023/04/14 11:18:13;;;;;;;;;;;19.90;39.80;;;;;;5038667;28;19920;-57
2023/04/14 11:20:41;;;;;;;;;;;19.90;39.80;;;;;;5037101;28;19967;-58
2023/04/14 11:23:08;;;;;;;;;;;19.90;39.80;;;;;;5057930;28;19927;-58
2023/04/14 11:25:34;;;;;;;;;;;19.90;39.80;;;;;;5040915;28;19920;-58
2023/04/14 11:28:02;;;;;;;;;;;19.90;39.70;;;;;;5037797;28;19921;-58
2023/04/14 11:30:28;;;;;;;;;;;19.90;39.80;;;;;;5037988;28;20339;-58
2023/04/14 11:32:56;;;;;;;;;;;19.90;39.90;;;;;;5059458;28;19925;-60
2023/04/14 11:35:25;;;;;;;;;;;19.90;40.00;;;;;;5041868;28;19924;-59
2023/04/14 11:37:52;;;;;;;;;;;19.90;40.00;;;;;;5038091;28;19965;-59
2023/04/14 11:40:19;;;;;;;;;;;19.90;39.90;;;;;;5035907;28;20366;-59
2023/04/14 11:42:46;;;;;;;;;;;19.90;39.90;;;;;;5057137;28;19921;-59
2023/04/14 11:45:14;;;;;;;;;;;19.90;39.80;;;;;;5036962;28;19933;-59
2023/04/14 11:47:46;;;;;;;;;;;19.90;39.80;;;;;;5037682;28;19920;-59
2023/04/14 11:50:13;;;;;;;;;;;19.90;39.70;;;;;;5019536;28;19990;-59
2023/04/14 11:52:45;;;;;;;;;;;19.90;39.70;;;;;;5031870;28;21101;-59
2023/04/14 11:55:13;;;;;;;;;;;19.90;39.70;;;;;;5041814;28;19944;-59
2023/04/14 11:57:43;;;;;;;;;;;19.90;39.70;;;;;;5030490;28;19927;-59
2023/04/14 12:00:11;;;;;;;;;;;19.90;39.60;;;;;;5032113;28;20043;-59
2023/04/14 12:02:38;;;;;;;;;;;19.90;39.60;;;;;;5030456;28;20334;-60
2023/04/14 12:05:05;;;;;;;;;;;19.90;39.60;;;;;;5032344;28;19921;-59
2023/04/14 12:07:32;;;;;;;;;;;19.90;39.60;;;;;;5027955;28;19960;-59
2023/04/14 12:10:01;;;;;;;;;;;19.90;39.60;;;;;;5048376;28;19983;-59
2023/04/14 12:12:28;;;;;;;;;;;19.90;39.60;;;;;;5049375;28;19921;-59
2023/04/14 12:14:55;;;;;;;;;;;19.90;39.70;;;;;;5036115;28;20278;-59
2023/04/14 12:17:21;;;;;;;;;;;19.90;39.80;;;;;;5033386;28;19966;-59
2023/04/14 12:19:48;;;;;;;;;;;19.90;39.80;;;;;;5036028;28;19944;-59
2023/04/14 12:22:22;;;;;;;;;;;19.90;39.90;;;;;;5018836;28;19925;-58
2023/04/14 12:24:49;;;;;;;;;;;19.90;40.00;;;;;;5034789;28;20379;-59
2023/04/14 12:27:19;;;;;;;;;;;19.90;40.00;;;;;;5033876;28;20288;-59
2023/04/14 12:29:48;;;;;;;;;;;19.90;40.00;;;;;;5036531;28;19921;-59
2023/04/14 12:32:16;;;;;;;;;;;19.90;40.10;;;;;;5039037;28;19924;-60
2023/04/14 12:34:52;;;;;;;;;;;19.90;40.20;;;;;;5037467;28;19920;-60
2023/04/14 12:37:23;;;;;;;;;;;19.90;40.20;;;;;;5038445;28;19921;-59
2023/04/14 12:39:50;;;;;;;;;;;19.90;40.30;;;;;;5035224;28;19928;-59
2023/04/14 12:42:18;;;;;;;;;;;19.90;40.30;;;;;;5032592;28;19927;-61
2023/04/14 12:44:53;;;;;;;;;;;20.00;41.00;;;;;;5029947;28;19920;-58
2023/04/14 12:47:26;;;;;;;;;;;20.00;40.50;;;;;;5029758;28;19956;-60
2023/04/14 12:49:53;;;;;;;;;;;20.00;40.50;;;;;;5027370;28;19921;-59
2023/04/14 12:52:32;;;;;;;;;;;20.00;40.50;;;;;;5048560;28;19979;-59
2023/04/14 12:54:58;;;;;;;;;;;20.00;40.60;;;;;;5034012;28;19947;-59
2023/04/14 12:57:27;;;;;;;;;;;20.00;40.60;;;;;;5028381;28;19975;-58
2023/04/14 12:59:54;;;;;;;;;;;20.00;40.60;;;;;;5047281;28;19990;-58
2023/04/14 13:02:21;;;;;;;;;;;20.00;40.70;;;;;;5047411;28;19924;-59
2023/04/14 13:04:47;;;;;;;;;;;20.00;40.70;;;;;;5031452;28;20418;-60
2023/04/14 13:07:14;;;;;;;;;;;20.00;40.70;;;;;;5030596;28;19975;-60
2023/04/14 13:09:42;;;;;;;;;;;20.00;40.80;;;;;;5031627;28;19982;-59
2023/04/14 13:12:09;;;;;;;;;;;20.00;40.80;;;;;;5029683;28;19921;-59
2023/04/14 13:14:37;;;;;;;;;;;20.10;40.90;;;;;;5047389;28;19933;-60
2023/04/14 13:17:04;;;;;;;;;;;20.10;40.90;;;;;;5028437;28;19972;-60
2023/04/14 13:19:30;;;;;;;;;;;20.10;40.90;;;;;;5048234;28;19921;-60
2023/04/14 13:21:58;;;;;;;;;;;20.10;40.90;;;;;;5030692;28;19975;-59
2023/04/14 13:24:24;;;;;;;;;;;20.10;40.90;;;;;;5031130;28;19931;-60
2023/04/14 13:26:51;;;;;;;;;;;20.10;40.90;;;;;;5035735;28;20179;-59
2023/04/14 13:29:18;;;;;;;;;;;20.10;40.90;;;;;;5029710;28;19921;-59
2023/04/14 13:31:46;;;;;;;;;;;20.10;41.00;;;;;;5030695;28;19964;-59
2023/04/14 13:34:13;;;;;;;;;;;20.10;41.00;;;;;;5047705;28;19925;-59
2023/04/14 13:36:39;;;;;;;;;;;20.10;41.00;;;;;;5029147;28;19960;-59
2023/04/14 13:39:06;;;;;;;;;;;20.10;41.10;;;;;;5040448;28;19924;-60
2023/04/14 13:41:33;;;;;;;;;;;20.10;41.10;;;;;;5050689;28;19921;-60
2023/04/14 13:44:00;;;;;;;;;;;20.10;41.10;;;;;;5019878;28;19920;-59
2023/04/14 13:46:27;;;;;;;;;;;20.10;41.10;;;;;;5049933;28;19968;-60
2023/04/14 13:48:55;;;;;;;;;;;20.10;41.10;;;;;;5037868;28;20318;-60
2023/04/14 13:51:22;;;;;;;;;;;20.10;41.10;;;;;;5033244;28;19974;-59
2023/04/14 13:53:49;;;;;;;;;;;20.10;41.20;;;;;;5039417;28;19948;-59
2023/04/14 13:56:17;;;;;;;;;;;20.10;41.20;;;;;;5034507;28;19931;-60
2023/04/14 13:58:43;;;;;;;;;;;20.10;41.20;;;;;;5036390;28;19921;-59
2023/04/14 14:01:10;;;;;;;;;;;20.20;41.30;;;;;;5042378;28;19975;-59
2023/04/14 14:03:38;;;;;;;;;;;20.10;41.30;;;;;;5036890;28;19921;-60
2023/04/14 14:06:07;;;;;;;;;;;20.20;41.40;;;;;;5055839;28;19951;-60
2023/04/14 14:08:36;;;;;;;;;;;20.20;41.40;;;;;;5039345;28;19924;-60
2023/04/14 14:11:03;;;;;;;;;;;20.20;41.40;;;;;;5037366;28;20004;-60
2023/04/14 14:13:31;;;;;;;;;;;20.20;41.40;;;;;;5060216;28;19920;-59
2023/04/14 14:15:58;;;;;;;;;;;20.20;41.40;;;;;;5058631;28;19987;-58
2023/04/14 14:18:25;;;;;;;;;;;20.20;41.40;;;;;;5059280;28;20240;-59